createdAt,value
2022-12-31T00:01:06.664Z,89.40
2022-12-31T00:03:35.179Z,92.10
2022-12-31T00:06:13.977Z,94.90
2022-12-31T00:08:43.709Z,71.40
2022-12-31T00:11:12.037Z,50.80
2022-12-31T00:13:40.855Z,50.20
2022-12-31T00:16:15.586Z,50.50
2022-12-31T00:18:46.182Z,99.60
2022-12-31T00:21:15.251Z,112.10
2022-12-31T00:23:43.235Z,84.20
2022-12-31T00:26:14.337Z,110.80
2022-12-31T00:28:43.020Z,81.90
2022-12-31T00:31:12.776Z,74.10
2022-12-31T00:33:41.503Z,96.00
2022-12-31T00:36:18.170Z,90.10
2022-12-31T00:38:48.485Z,55.30
2022-12-31T00:41:18.124Z,74.60
2022-12-31T00:43:46.698Z,33.20
2022-12-31T00:46:15.680Z,44.90
2022-12-31T00:48:43.944Z,64.80
2022-12-31T00:51:15.432Z,43.50
2022-12-31T00:53:44.299Z,87.00
2022-12-31T00:56:19.618Z,63.70
2022-12-31T00:58:48.700Z,68.90
2022-12-31T01:01:28.934Z,115.10
2022-12-31T01:04:10.594Z,80.00
2022-12-31T01:06:39.700Z,101.10
2022-12-31T01:09:08.783Z,109.50
2022-12-31T01:11:37.378Z,92.00
2022-12-31T01:14:10.090Z,88.90
2022-12-31T01:16:53.818Z,84.90
2022-12-31T01:19:25.602Z,94.00
2022-12-31T01:21:54.183Z,86.60
2022-12-31T01:24:22.712Z,85.80
2022-12-31T01:26:51.587Z,78.40
2022-12-31T01:29:19.701Z,76.90
2022-12-31T01:31:47.680Z,76.40
2022-12-31T01:34:15.627Z,80.20
2022-12-31T01:36:43.627Z,94.60
2022-12-31T01:39:12.447Z,78.10
2022-12-31T01:41:44.129Z,90.30
2022-12-31T01:44:12.010Z,80.70
2022-12-31T01:46:52.006Z,51.80
2022-12-31T01:49:45.364Z,38.80
2022-12-31T01:52:18.120Z,84.50
2022-12-31T01:54:51.771Z,56.30
2022-12-31T01:57:21.241Z,56.50
2022-12-31T01:59:50.221Z,44.00
2022-12-31T02:02:18.501Z,70.70
2022-12-31T02:04:48.613Z,72.20
2022-12-31T02:07:16.598Z,87.10
2022-12-31T02:09:45.086Z,91.50
2022-12-31T02:12:13.978Z,89.90
2022-12-31T02:14:49.417Z,51.00
2022-12-31T02:17:46.640Z,76.70
2022-12-31T02:20:46.872Z,96.20
2022-12-31T02:23:45.635Z,87.00
2022-12-31T02:26:33.579Z,93.30
2022-12-31T02:29:16.646Z,89.40
2022-12-31T02:32:04.256Z,89.30
2022-12-31T02:34:53.027Z,88.00
2022-12-31T02:37:24.473Z,37.30
2022-12-31T02:39:53.116Z,87.30
2022-12-31T02:42:21.259Z,56.40
2022-12-31T02:48:30.407Z,99.00
2022-12-31T02:51:12.585Z,80.50
2022-12-31T02:53:58.457Z,82.00
2022-12-31T02:56:49.599Z,84.40
2022-12-31T02:59:52.837Z,93.00
2022-12-31T03:02:23.989Z,88.00
2022-12-31T03:04:55.546Z,108.90
2022-12-31T03:07:27.088Z,75.10
2022-12-31T03:09:56.004Z,36.20
2022-12-31T03:12:45.800Z,46.50
2022-12-31T03:15:43.466Z,135.60
2022-12-31T03:18:17.178Z,105.60
2022-12-31T03:21:06.994Z,80.00
2022-12-31T03:23:50.286Z,58.80
2022-12-31T03:28:47.984Z,93.10
2022-12-31T03:31:16.984Z,79.10
2022-12-31T03:33:44.970Z,99.80
2022-12-31T03:36:15.157Z,85.20
2022-12-31T03:38:46.400Z,93.00
2022-12-31T03:41:17.993Z,46.70
2022-12-31T03:43:46.063Z,85.90
2022-12-31T03:46:14.384Z,89.60
2022-12-31T03:48:42.549Z,66.30
2022-12-31T03:51:10.564Z,53.60
2022-12-31T03:53:39.098Z,35.50
2022-12-31T03:56:07.233Z,72.10
2022-12-31T03:58:35.410Z,65.00
2022-12-31T04:01:03.563Z,50.60
2022-12-31T04:03:31.591Z,82.60
2022-12-31T04:05:59.575Z,53.70
2022-12-31T04:08:27.649Z,61.40
2022-12-31T04:10:55.664Z,35.10
2022-12-31T04:13:23.731Z,54.10
2022-12-31T04:15:52.178Z,50.90
2022-12-31T04:18:20.427Z,59.00
2022-12-31T04:20:48.707Z,32.70
2022-12-31T04:23:18.393Z,65.60
2022-12-31T04:25:46.638Z,76.40
2022-12-31T04:28:15.055Z,73.40
2022-12-31T04:30:44.165Z,84.50
2022-12-31T04:33:12.218Z,63.60
2022-12-31T04:35:40.365Z,73.40
2022-12-31T04:38:08.749Z,62.60
2022-12-31T04:40:56.699Z,97.20
2022-12-31T04:43:24.904Z,84.70
2022-12-31T04:45:52.937Z,68.10
2022-12-31T04:48:21.746Z,50.90
2022-12-31T04:50:49.703Z,85.90
2022-12-31T04:53:17.829Z,75.30
2022-12-31T04:55:46.167Z,49.20
2022-12-31T04:58:14.222Z,113.20
2022-12-31T05:00:42.182Z,77.80
2022-12-31T05:03:10.388Z,65.30
2022-12-31T05:05:40.014Z,38.80
2022-12-31T05:08:08.139Z,42.10
2022-12-31T05:10:36.780Z,74.50
2022-12-31T05:13:04.728Z,72.40
2022-12-31T05:15:33.200Z,54.10
2022-12-31T05:18:01.516Z,74.20
2022-12-31T05:20:30.106Z,76.90
2022-12-31T05:22:58.208Z,43.70
2022-12-31T05:25:26.297Z,85.20
2022-12-31T05:27:54.434Z,44.10
2022-12-31T05:30:23.860Z,92.20
2022-12-31T05:32:51.986Z,68.00
2022-12-31T05:35:19.897Z,38.10
2022-12-31T05:37:48.231Z,63.20
2022-12-31T05:40:16.226Z,36.80
2022-12-31T05:42:44.582Z,77.30
2022-12-31T05:45:15.973Z,67.40
2022-12-31T05:47:45.245Z,50.30
2022-12-31T05:50:18.150Z,68.20
2022-12-31T05:52:47.759Z,82.70
2022-12-31T05:55:16.574Z,70.30
2022-12-31T05:57:44.685Z,37.10
2022-12-31T06:00:13.590Z,68.50
2022-12-31T06:02:41.738Z,70.20
2022-12-31T06:05:10.534Z,74.20
2022-12-31T06:07:38.633Z,83.20
2022-12-31T06:10:07.172Z,50.80
2022-12-31T06:12:35.668Z,81.10
2022-12-31T06:15:04.396Z,115.80
2022-12-31T06:17:32.637Z,68.40
2022-12-31T06:20:01.256Z,35.50
2022-12-31T06:22:29.540Z,44.90
2022-12-31T06:24:57.597Z,83.30
2022-12-31T06:27:25.702Z,92.90
2022-12-31T06:29:53.669Z,79.10
2022-12-31T06:32:21.611Z,53.00
2022-12-31T06:34:49.653Z,55.30
2022-12-31T06:37:17.809Z,43.10
2022-12-31T06:39:45.941Z,52.80
2022-12-31T06:42:15.240Z,64.40
2022-12-31T06:44:44.029Z,41.90
2022-12-31T06:47:12.018Z,73.10
2022-12-31T06:49:40.896Z,56.70
2022-12-31T06:52:08.977Z,104.40
2022-12-31T06:54:37.450Z,102.10
2022-12-31T06:57:05.876Z,113.50
2022-12-31T06:59:34.310Z,69.30
2022-12-31T07:02:40.796Z,51.40
2022-12-31T07:05:50.956Z,98.30
2022-12-31T07:08:33.917Z,73.80
2022-12-31T07:11:23.300Z,68.20
2022-12-31T07:13:57.542Z,74.50
2022-12-31T07:16:54.988Z,105.70
2022-12-31T07:19:35.883Z,104.40
2022-12-31T07:22:04.202Z,101.30
2022-12-31T07:24:32.618Z,100.30
2022-12-31T07:27:20.740Z,73.50
2022-12-31T07:30:00.714Z,68.50
2022-12-31T07:32:44.607Z,102.00
2022-12-31T07:37:58.934Z,96.90
2022-12-31T07:40:42.122Z,93.50
2022-12-31T07:43:22.401Z,99.30
2022-12-31T07:46:00.150Z,115.50
2022-12-31T07:48:29.402Z,115.40
2022-12-31T07:50:57.852Z,120.10
2022-12-31T07:53:26.996Z,113.50
2022-12-31T07:55:58.279Z,126.20
2022-12-31T07:58:29.175Z,115.90
2022-12-31T08:00:59.798Z,74.80
2022-12-31T08:03:37.949Z,183.30
2022-12-31T08:06:19.439Z,132.30
2022-12-31T08:08:53.160Z,112.90
2022-12-31T08:11:34.483Z,117.00
2022-12-31T08:14:03.069Z,127.70
2022-12-31T08:16:31.426Z,121.70
2022-12-31T08:18:59.649Z,109.40
2022-12-31T08:21:37.199Z,82.10
2022-12-31T08:24:14.251Z,59.70
2022-12-31T08:26:49.521Z,120.90
2022-12-31T08:29:28.400Z,136.10
2022-12-31T08:32:02.475Z,96.30
2022-12-31T08:34:49.002Z,116.10
2022-12-31T08:37:29.110Z,117.20
2022-12-31T08:39:57.103Z,127.10
2022-12-31T08:42:43.674Z,86.00
2022-12-31T08:45:19.037Z,118.20
2022-12-31T08:48:16.741Z,129.40
2022-12-31T08:50:45.017Z,135.90
2022-12-31T08:53:13.225Z,116.50
2022-12-31T08:55:43.743Z,121.60
2022-12-31T08:58:36.246Z,105.40
2022-12-31T09:01:07.473Z,75.60
2022-12-31T09:03:54.120Z,105.00
2022-12-31T09:06:42.077Z,111.30
2022-12-31T09:09:28.387Z,74.30
2022-12-31T09:12:41.760Z,70.10
2022-12-31T09:15:25.977Z,85.50
2022-12-31T09:17:54.296Z,72.70
2022-12-31T09:20:42.763Z,54.00
2022-12-31T09:23:13.461Z,51.30
2022-12-31T09:25:59.381Z,61.90
2022-12-31T09:29:11.100Z,94.00
2022-12-31T09:32:08.406Z,77.90
2022-12-31T09:34:47.060Z,73.00
2022-12-31T09:37:28.346Z,72.80
2022-12-31T09:40:01.772Z,76.80
2022-12-31T09:42:47.938Z,76.70
2022-12-31T09:45:26.377Z,99.30
2022-12-31T09:48:21.036Z,90.10
2022-12-31T09:51:27.000Z,83.40
2022-12-31T09:54:10.141Z,58.80
2022-12-31T09:57:22.639Z,61.70
2022-12-31T10:00:02.848Z,44.30
2022-12-31T10:02:46.345Z,56.00
2022-12-31T10:05:42.583Z,47.00
2022-12-31T10:08:43.131Z,50.50
2022-12-31T10:11:41.301Z,50.60
2022-12-31T10:14:47.862Z,53.30
2022-12-31T10:17:31.250Z,41.10
2022-12-31T10:20:15.028Z,51.30
2022-12-31T10:22:46.407Z,41.40
2022-12-31T10:25:39.671Z,55.60
2022-12-31T10:28:26.401Z,33.80
2022-12-31T10:31:35.385Z,66.50
2022-12-31T10:34:19.845Z,75.00
2022-12-31T10:37:11.262Z,67.10
2022-12-31T10:39:54.294Z,112.50
2022-12-31T10:42:59.944Z,59.80
2022-12-31T10:45:46.727Z,59.30
2022-12-31T10:48:36.848Z,51.30
2022-12-31T10:51:20.873Z,64.00
2022-12-31T10:54:21.310Z,64.90
2022-12-31T10:57:15.227Z,79.70
2022-12-31T11:00:01.211Z,69.10
2022-12-31T11:02:51.732Z,56.00
2022-12-31T11:05:47.452Z,55.80
2022-12-31T11:08:34.554Z,95.80
2022-12-31T11:11:28.603Z,57.70
2022-12-31T11:14:30.464Z,62.80
2022-12-31T11:17:16.746Z,63.00
2022-12-31T11:20:15.232Z,47.00
2022-12-31T11:22:54.198Z,56.30
2022-12-31T11:25:54.779Z,53.00
2022-12-31T11:28:35.049Z,47.90
2022-12-31T11:31:38.368Z,39.90
2022-12-31T11:34:41.219Z,34.80
2022-12-31T11:37:49.499Z,42.40
2022-12-31T11:40:43.483Z,40.00
2022-12-31T11:43:50.508Z,44.50
2022-12-31T11:46:31.212Z,38.40
2022-12-31T11:49:34.705Z,46.70
2022-12-31T11:52:21.377Z,45.70
2022-12-31T11:55:08.501Z,44.10
2022-12-31T11:57:39.937Z,35.40
2022-12-31T12:00:20.469Z,44.90
2022-12-31T12:02:58.002Z,46.10
2022-12-31T12:05:27.507Z,49.60
2022-12-31T12:07:56.280Z,51.60
2022-12-31T12:10:35.698Z,48.40
2022-12-31T12:13:25.555Z,41.40
2022-12-31T12:15:57.281Z,35.50
2022-12-31T12:18:38.748Z,35.90
2022-12-31T12:21:11.052Z,42.10
2022-12-31T12:23:40.455Z,51.70
2022-12-31T12:26:28.695Z,64.80
2022-12-31T12:29:01.629Z,44.70
2022-12-31T12:31:30.716Z,38.80
2022-12-31T12:33:58.836Z,41.30
2022-12-31T12:36:27.024Z,47.90
2022-12-31T12:39:06.196Z,48.90
2022-12-31T12:41:34.352Z,38.10
2022-12-31T12:44:14.507Z,69.90
2022-12-31T12:46:53.118Z,40.70
2022-12-31T12:49:27.724Z,45.90
2022-12-31T12:52:32.945Z,40.30
2022-12-31T12:55:39.574Z,36.20
2022-12-31T12:58:30.071Z,33.90
2022-12-31T13:01:10.124Z,41.10
2022-12-31T13:04:31.819Z,42.70
2022-12-31T13:07:09.711Z,36.70
2022-12-31T13:09:43.714Z,35.10
2022-12-31T13:12:11.690Z,46.50
2022-12-31T13:14:58.312Z,34.00
2022-12-31T13:18:14.906Z,45.40
2022-12-31T13:20:58.191Z,32.20
2022-12-31T13:23:42.300Z,31.30
2022-12-31T13:26:14.671Z,39.40
2022-12-31T13:28:46.358Z,40.80
2022-12-31T13:31:26.521Z,40.50
2022-12-31T13:34:01.176Z,35.50
2022-12-31T13:36:33.075Z,48.40
2022-12-31T13:39:05.603Z,44.70
2022-12-31T13:44:08.606Z,45.10
2022-12-31T13:46:50.271Z,56.30
2022-12-31T13:49:50.270Z,45.20
2022-12-31T13:52:29.888Z,40.20
2022-12-31T13:55:03.680Z,37.70
2022-12-31T13:57:48.283Z,44.10
2022-12-31T14:00:21.806Z,47.60
2022-12-31T14:03:09.200Z,43.70
2022-12-31T14:05:49.854Z,41.20
2022-12-31T14:08:18.047Z,45.80
2022-12-31T14:11:07.072Z,45.80
2022-12-31T14:13:57.764Z,41.40
2022-12-31T14:16:45.876Z,40.20
2022-12-31T14:19:56.493Z,38.10
2022-12-31T14:22:49.459Z,34.00
2022-12-31T14:27:51.282Z,60.20
2022-12-31T14:30:22.806Z,52.30
2022-12-31T14:33:28.684Z,80.40
2022-12-31T14:36:22.908Z,104.90
2022-12-31T14:39:10.549Z,77.60
2022-12-31T14:42:04.912Z,74.80
2022-12-31T14:45:25.575Z,89.60
2022-12-31T14:48:00.327Z,50.80
2022-12-31T14:50:31.167Z,57.70
2022-12-31T14:52:59.174Z,117.10
2022-12-31T14:55:34.114Z,99.10
2022-12-31T14:58:28.584Z,57.00
2022-12-31T15:00:59.381Z,53.20
2022-12-31T15:03:46.069Z,49.40
2022-12-31T15:06:23.768Z,43.30
2022-12-31T15:09:10.534Z,36.80
2022-12-31T15:12:06.803Z,53.20
2022-12-31T15:15:04.558Z,66.20
2022-12-31T15:17:48.167Z,73.40
2022-12-31T15:20:55.813Z,48.20
2022-12-31T15:23:42.711Z,43.00
2022-12-31T15:26:31.612Z,56.20
2022-12-31T15:29:06.542Z,47.40
2022-12-31T15:31:36.623Z,55.30
2022-12-31T15:34:20.465Z,78.10
2022-12-31T15:36:55.114Z,145.30
2022-12-31T15:39:43.594Z,96.50
2022-12-31T15:42:50.126Z,85.30
2022-12-31T15:45:28.055Z,69.10
2022-12-31T15:48:00.921Z,77.50
2022-12-31T15:50:30.099Z,65.20
2022-12-31T15:53:02.833Z,63.90
2022-12-31T15:55:48.708Z,68.40
2022-12-31T15:58:20.804Z,107.80
2022-12-31T16:01:10.606Z,111.30
2022-12-31T16:03:45.085Z,95.00
2022-12-31T16:06:15.654Z,69.70
2022-12-31T16:08:46.334Z,42.70
2022-12-31T16:11:16.308Z,54.00
2022-12-31T16:13:47.396Z,61.90
2022-12-31T16:16:28.033Z,51.40
2022-12-31T16:18:57.370Z,52.50
2022-12-31T16:21:34.733Z,57.80
2022-12-31T16:24:26.312Z,104.20
2022-12-31T16:26:59.193Z,80.30
2022-12-31T16:29:28.060Z,91.20
2022-12-31T16:31:56.134Z,76.40
2022-12-31T16:34:27.000Z,50.10
2022-12-31T16:36:56.611Z,96.40
2022-12-31T16:39:37.828Z,68.30
2022-12-31T16:42:17.737Z,56.20
2022-12-31T16:44:47.517Z,79.30
2022-12-31T16:47:31.584Z,52.70
2022-12-31T16:50:05.524Z,70.20
2022-12-31T16:52:42.331Z,65.00
2022-12-31T16:55:18.393Z,80.30
2022-12-31T16:57:49.175Z,107.10
2022-12-31T17:00:19.125Z,62.90
2022-12-31T17:03:10.740Z,62.10
2022-12-31T17:06:18.888Z,99.60
2022-12-31T17:09:05.640Z,112.40
2022-12-31T17:11:35.572Z,96.50
2022-12-31T17:14:13.053Z,102.00
2022-12-31T17:17:02.826Z,90.80
2022-12-31T17:19:37.543Z,63.20
2022-12-31T17:22:11.747Z,85.10
2022-12-31T17:24:40.334Z,85.60
2022-12-31T17:27:09.612Z,67.70
2022-12-31T17:29:37.976Z,70.30
2022-12-31T17:32:28.130Z,99.70
2022-12-31T17:34:56.260Z,96.30
2022-12-31T17:37:30.088Z,125.00
2022-12-31T17:40:49.928Z,158.20
2022-12-31T17:42:50.697Z,140.10
2022-12-31T17:45:21.768Z,117.50
2022-12-31T17:47:52.564Z,107.50
2022-12-31T17:50:25.603Z,112.40
2022-12-31T17:53:08.716Z,289.00
2022-12-31T17:55:37.278Z,134.70
2022-12-31T17:58:06.940Z,119.80
2022-12-31T18:00:36.913Z,97.40
2022-12-31T18:03:05.039Z,85.80
2022-12-31T18:05:33.075Z,76.20
2022-12-31T18:08:01.197Z,79.70
2022-12-31T18:10:32.376Z,69.50
2022-12-31T18:13:01.835Z,122.90
2022-12-31T18:15:29.885Z,161.70
2022-12-31T18:17:58.014Z,98.10
2022-12-31T18:20:26.499Z,122.80
2022-12-31T18:22:55.915Z,123.20
2022-12-31T18:25:24.359Z,111.40
2022-12-31T18:27:52.926Z,101.50
2022-12-31T18:30:21.374Z,109.80
2022-12-31T18:32:49.655Z,119.10
2022-12-31T18:35:57.611Z,153.00
2022-12-31T18:38:13.890Z,66.30
2022-12-31T18:40:46.463Z,68.00
2022-12-31T18:43:17.251Z,85.50
2022-12-31T18:45:46.633Z,60.60
2022-12-31T18:48:15.750Z,111.50
2022-12-31T18:50:44.546Z,115.90
2022-12-31T18:53:19.340Z,117.70
2022-12-31T18:55:54.316Z,105.30
2022-12-31T18:58:22.837Z,72.60
2022-12-31T19:00:52.187Z,78.40
2022-12-31T19:03:24.044Z,89.70
2022-12-31T19:05:52.263Z,71.80
2022-12-31T19:08:22.468Z,71.70
2022-12-31T19:10:52.188Z,132.60
2022-12-31T19:13:21.063Z,104.30
2022-12-31T19:15:53.385Z,106.10
2022-12-31T19:18:21.502Z,117.40
2022-12-31T19:20:52.172Z,108.90
2022-12-31T19:23:22.600Z,85.80
2022-12-31T19:25:50.767Z,56.20
2022-12-31T19:28:27.219Z,64.20
2022-12-31T19:30:55.764Z,58.30
2022-12-31T19:33:23.724Z,60.60
2022-12-31T19:35:51.742Z,58.10
2022-12-31T19:38:25.327Z,84.60
2022-12-31T19:40:53.804Z,67.90
2022-12-31T19:43:23.652Z,56.70
2022-12-31T19:45:52.351Z,61.20
2022-12-31T19:48:30.317Z,76.30
2022-12-31T19:51:00.465Z,97.70
2022-12-31T19:53:28.876Z,77.20
2022-12-31T19:55:56.852Z,72.90
2022-12-31T19:58:27.006Z,80.60
2022-12-31T20:01:02.323Z,105.30
2022-12-31T20:03:33.212Z,81.80
2022-12-31T20:06:06.562Z,65.70
2022-12-31T20:08:36.178Z,76.60
2022-12-31T20:11:19.146Z,83.50
2022-12-31T20:13:49.609Z,97.90
2022-12-31T20:16:20.463Z,106.10
2022-12-31T20:18:50.648Z,61.80
2022-12-31T20:21:24.408Z,74.80
2022-12-31T20:23:53.907Z,67.40
2022-12-31T20:26:24.444Z,78.70
2022-12-31T20:28:53.350Z,83.10
2022-12-31T20:31:24.499Z,80.10
2022-12-31T20:33:54.369Z,71.40
2022-12-31T20:36:23.226Z,69.60
2022-12-31T20:38:51.468Z,58.10
2022-12-31T20:41:22.091Z,62.80
2022-12-31T20:43:51.504Z,63.80
2022-12-31T20:46:23.215Z,64.70
2022-12-31T20:48:53.839Z,66.10
2022-12-31T20:51:23.946Z,52.70
2022-12-31T20:53:57.418Z,71.20
2022-12-31T20:56:30.676Z,68.20
2022-12-31T20:58:59.374Z,54.40
2022-12-31T21:01:41.863Z,75.20
2022-12-31T21:04:15.812Z,84.90
2022-12-31T21:06:44.066Z,84.00
2022-12-31T21:09:12.042Z,69.40
2022-12-31T21:11:58.559Z,46.10
2022-12-31T21:14:26.509Z,98.40
2022-12-31T21:16:54.486Z,68.30
2022-12-31T21:19:22.555Z,87.90
2022-12-31T21:21:51.330Z,72.10
2022-12-31T21:24:23.877Z,199.20
2022-12-31T21:26:55.704Z,138.30
2022-12-31T21:29:23.752Z,124.00
2022-12-31T21:31:51.751Z,129.70
2022-12-31T21:34:19.938Z,102.70
2022-12-31T21:36:48.021Z,70.20
2022-12-31T21:39:16.091Z,135.20
2022-12-31T21:41:52.931Z,90.20
2022-12-31T21:44:24.721Z,87.00
2022-12-31T21:47:35.012Z,89.20
2022-12-31T21:50:05.426Z,265.90
2022-12-31T21:52:36.182Z,102.20
2022-12-31T21:55:24.039Z,89.80
2022-12-31T21:58:24.713Z,108.50
2022-12-31T22:00:59.535Z,67.10
2022-12-31T22:03:28.697Z,67.40
2022-12-31T22:06:12.362Z,63.90
2022-12-31T22:08:42.015Z,111.50
2022-12-31T22:11:11.789Z,105.40
2022-12-31T22:13:40.345Z,111.60
2022-12-31T22:16:09.565Z,125.10
2022-12-31T22:18:39.524Z,115.60
2022-12-31T22:21:18.900Z,155.00
2022-12-31T22:23:50.425Z,191.70
2022-12-31T22:26:22.107Z,197.10
2022-12-31T22:28:51.475Z,200.20
2022-12-31T22:31:24.480Z,193.80
2022-12-31T22:33:53.251Z,156.40
2022-12-31T22:36:23.330Z,144.10
2022-12-31T22:38:55.958Z,132.60
2022-12-31T22:44:03.143Z,168.90
2022-12-31T22:46:32.783Z,135.40
2022-12-31T22:49:02.997Z,118.80
2022-12-31T22:51:55.909Z,111.40
2022-12-31T22:54:21.638Z,151.00
2022-12-31T22:56:49.652Z,138.20
2022-12-31T22:59:17.820Z,169.40
2022-12-31T23:01:46.239Z,218.60
2022-12-31T23:04:15.486Z,189.90
2022-12-31T23:06:43.647Z,196.50
2022-12-31T23:09:34.443Z,156.50
2022-12-31T23:12:03.815Z,143.20
2022-12-31T23:14:50.504Z,132.50
2022-12-31T23:17:42.776Z,124.10
2022-12-31T23:20:36.204Z,173.80
2022-12-31T23:23:08.680Z,183.20
2022-12-31T23:25:49.207Z,190.30
2022-12-31T23:28:20.577Z,170.20
2022-12-31T23:30:51.349Z,159.70
2022-12-31T23:33:23.929Z,183.00
2022-12-31T23:36:05.341Z,127.20
2022-12-31T23:38:33.587Z,136.00
2022-12-31T23:41:12.497Z,199.30
2022-12-31T23:43:40.553Z,186.30
2022-12-31T23:46:08.658Z,140.80
2022-12-31T23:48:36.681Z,225.40
2022-12-31T23:51:05.388Z,199.80
2022-12-31T23:53:33.925Z,147.40
2022-12-31T23:56:14.841Z,231.60
2022-12-31T23:58:45.686Z,237.70
